sensor_id;sensor_type;location;lat;lon;timestamp;P1;durP1;ratioP1;P2;durP2;ratioP2
15218;SDS011;15623;53.986;11.676;2022-09-20T00:02:26;1.30;;;0.90;;
15218;SDS011;15623;53.986;11.676;2022-09-20T00:04:54;1.33;;;0.90;;
15218;SDS011;15623;53.986;11.676;2022-09-20T00:07:23;0.60;;;0.60;;
15218;SDS011;15623;53.986;11.676;2022-09-20T00:09:50;1.90;;;1.00;;
15218;SDS011;15623;53.986;11.676;2022-09-20T00:12:18;2.70;;;0.90;;
15218;SDS011;15623;53.986;11.676;2022-09-20T00:14:45;1.07;;;0.60;;
15218;SDS011;15623;53.986;11.676;2022-09-20T00:17:12;0.70;;;0.70;;
15218;SDS011;15623;53.986;11.676;2022-09-20T00:19:39;1.40;;;0.80;;
15218;SDS011;15623;53.986;11.676;2022-09-20T00:22:07;1.90;;;0.90;;
15218;SDS011;15623;53.986;11.676;2022-09-20T00:24:36;0.77;;;0.70;;
15218;SDS011;15623;53.986;11.676;2022-09-20T00:27:03;3.90;;;1.00;;
15218;SDS011;15623;53.986;11.676;2022-09-20T00:29:31;2.53;;;0.60;;
15218;SDS011;15623;53.986;11.676;2022-09-20T00:31:58;1.40;;;0.73;;
15218;SDS011;15623;53.986;11.676;2022-09-20T00:34:25;0.90;;;0.70;;
15218;SDS011;15623;53.986;11.676;2022-09-20T00:37:10;0.73;;;0.73;;
15218;SDS011;15623;53.986;11.676;2022-09-20T00:39:39;1.67;;;0.63;;
15218;SDS011;15623;53.986;11.676;2022-09-20T00:42:08;1.20;;;0.70;;
15218;SDS011;15623;53.986;11.676;2022-09-20T00:44:41;1.70;;;0.70;;
15218;SDS011;15623;53.986;11.676;2022-09-20T00:47:12;3.57;;;1.20;;
15218;SDS011;15623;53.986;11.676;2022-09-20T00:49:40;1.03;;;0.60;;
15218;SDS011;15623;53.986;11.676;2022-09-20T00:52:07;4.57;;;1.00;;
15218;SDS011;15623;53.986;11.676;2022-09-20T00:54:35;0.83;;;0.70;;
15218;SDS011;15623;53.986;11.676;2022-09-20T00:57:04;1.03;;;0.60;;
15218;SDS011;15623;53.986;11.676;2022-09-20T00:59:32;1.33;;;0.60;;
15218;SDS011;15623;53.986;11.676;2022-09-20T01:02:01;1.77;;;0.87;;
15218;SDS011;15623;53.986;11.676;2022-09-20T01:04:29;1.87;;;0.70;;
15218;SDS011;15623;53.986;11.676;2022-09-20T01:06:58;1.70;;;0.70;;
15218;SDS011;15623;53.986;11.676;2022-09-20T01:09:27;0.60;;;0.60;;
15218;SDS011;15623;53.986;11.676;2022-09-20T01:11:55;1.40;;;0.60;;
15218;SDS011;15623;53.986;11.676;2022-09-20T01:14:33;1.80;;;0.80;;
15218;SDS011;15623;53.986;11.676;2022-09-20T01:17:02;2.70;;;0.83;;
15218;SDS011;15623;53.986;11.676;2022-09-20T01:19:33;1.93;;;0.80;;
15218;SDS011;15623;53.986;11.676;2022-09-20T01:22:05;1.60;;;0.90;;
15218;SDS011;15623;53.986;11.676;2022-09-20T01:24:37;2.10;;;0.93;;
15218;SDS011;15623;53.986;11.676;2022-09-20T01:27:10;5.07;;;1.30;;
15218;SDS011;15623;53.986;11.676;2022-09-20T01:29:48;4.43;;;1.03;;
15218;SDS011;15623;53.986;11.676;2022-09-20T01:32:18;1.60;;;1.20;;
15218;SDS011;15623;53.986;11.676;2022-09-20T01:34:51;1.47;;;0.90;;
15218;SDS011;15623;53.986;11.676;2022-09-20T01:37:35;3.17;;;1.00;;
15218;SDS011;15623;53.986;11.676;2022-09-20T01:40:08;2.37;;;1.77;;
15218;SDS011;15623;53.986;11.676;2022-09-20T01:42:42;5.10;;;1.40;;
15218;SDS011;15623;53.986;11.676;2022-09-20T01:48:17;3.17;;;1.20;;
15218;SDS011;15623;53.986;11.676;2022-09-20T01:51:04;1.17;;;1.07;;
15218;SDS011;15623;53.986;11.676;2022-09-20T01:53:46;2.80;;;1.20;;
15218;SDS011;15623;53.986;11.676;2022-09-20T02:02:06;2.10;;;1.47;;
15218;SDS011;15623;53.986;11.676;2022-09-20T02:16:51;1.50;;;1.40;;
15218;SDS011;15623;53.986;11.676;2022-09-20T02:19:32;1.93;;;1.60;;
15218;SDS011;15623;53.986;11.676;2022-09-20T02:24:38;3.60;;;1.80;;
15218;SDS011;15623;53.986;11.676;2022-09-20T02:27:11;2.57;;;1.60;;
15218;SDS011;15623;53.986;11.676;2022-09-20T02:29:42;1.83;;;1.73;;
15218;SDS011;15623;53.986;11.676;2022-09-20T02:35:38;2.90;;;1.97;;
15218;SDS011;15623;53.986;11.676;2022-09-20T02:38:16;2.20;;;2.00;;
15218;SDS011;15623;53.986;11.676;2022-09-20T02:44:14;4.13;;;1.97;;
15218;SDS011;15623;53.986;11.676;2022-09-20T02:46:56;3.87;;;2.10;;
15218;SDS011;15623;53.986;11.676;2022-09-20T02:51:59;3.10;;;2.23;;
15218;SDS011;15623;53.986;11.676;2022-09-20T02:54:43;3.10;;;2.53;;
15218;SDS011;15623;53.986;11.676;2022-09-20T02:57:29;4.10;;;2.30;;
15218;SDS011;15623;53.986;11.676;2022-09-20T03:00:00;3.87;;;2.40;;
15218;SDS011;15623;53.986;11.676;2022-09-20T03:21:00;3.47;;;2.60;;
15218;SDS011;15623;53.986;11.676;2022-09-20T03:23:37;3.30;;;2.63;;
15218;SDS011;15623;53.986;11.676;2022-09-20T03:26:11;3.00;;;2.63;;
15218;SDS011;15623;53.986;11.676;2022-09-20T03:28:57;3.80;;;2.80;;
15218;SDS011;15623;53.986;11.676;2022-09-20T03:31:29;2.73;;;2.50;;
15218;SDS011;15623;53.986;11.676;2022-09-20T03:34:01;2.67;;;2.57;;
15218;SDS011;15623;53.986;11.676;2022-09-20T03:36:48;4.20;;;2.63;;
15218;SDS011;15623;53.986;11.676;2022-09-20T03:42:10;4.50;;;2.80;;
15218;SDS011;15623;53.986;11.676;2022-09-20T03:44:47;2.93;;;2.33;;
15218;SDS011;15623;53.986;11.676;2022-09-20T03:47:30;2.97;;;2.63;;
15218;SDS011;15623;53.986;11.676;2022-09-20T20:48:43;0.90;;;0.90;;
15218;SDS011;15623;53.986;11.676;2022-09-20T20:51:12;1.03;;;0.80;;
15218;SDS011;15623;53.986;11.676;2022-09-20T20:53:40;0.70;;;0.70;;
15218;SDS011;15623;53.986;11.676;2022-09-20T20:56:09;1.30;;;0.83;;
15218;SDS011;15623;53.986;11.676;2022-09-20T20:58:39;0.60;;;0.60;;
15218;SDS011;15623;53.986;11.676;2022-09-20T21:06:34;1.10;;;1.10;;
15218;SDS011;15623;53.986;11.676;2022-09-20T21:09:08;0.97;;;0.90;;
15218;SDS011;15623;53.986;11.676;2022-09-20T21:15:03;0.70;;;0.70;;
15218;SDS011;15623;53.986;11.676;2022-09-20T21:17:31;0.90;;;0.90;;
15218;SDS011;15623;53.986;11.676;2022-09-20T21:20:00;6.27;;;1.13;;
15218;SDS011;15623;53.986;11.676;2022-09-20T21:22:30;1.00;;;0.90;;
15218;SDS011;15623;53.986;11.676;2022-09-20T21:24:58;0.83;;;0.83;;
15218;SDS011;15623;53.986;11.676;2022-09-20T21:27:26;2.83;;;1.20;;
15218;SDS011;15623;53.986;11.676;2022-09-20T21:29:54;0.80;;;0.80;;
15218;SDS011;15623;53.986;11.676;2022-09-20T21:32:55;1.20;;;1.10;;
15218;SDS011;15623;53.986;11.676;2022-09-20T21:35:23;0.80;;;0.80;;
15218;SDS011;15623;53.986;11.676;2022-09-20T21:37:54;1.83;;;1.30;;
15218;SDS011;15623;53.986;11.676;2022-09-20T21:40:21;0.60;;;0.60;;
15218;SDS011;15623;53.986;11.676;2022-09-20T21:43:03;1.07;;;1.00;;
15218;SDS011;15623;53.986;11.676;2022-09-20T21:45:30;1.77;;;1.03;;
15218;SDS011;15623;53.986;11.676;2022-09-20T21:47:59;1.37;;;1.10;;
15218;SDS011;15623;53.986;11.676;2022-09-20T21:50:27;1.23;;;1.03;;
15218;SDS011;15623;53.986;11.676;2022-09-20T21:53:00;1.00;;;1.00;;
15218;SDS011;15623;53.986;11.676;2022-09-20T21:55:35;1.37;;;1.27;;
15218;SDS011;15623;53.986;11.676;2022-09-20T21:58:02;1.70;;;1.10;;
15218;SDS011;15623;53.986;11.676;2022-09-20T22:00:30;1.90;;;1.27;;
15218;SDS011;15623;53.986;11.676;2022-09-20T22:02:58;1.30;;;1.20;;
15218;SDS011;15623;53.986;11.676;2022-09-20T22:05:26;1.27;;;1.03;;
15218;SDS011;15623;53.986;11.676;2022-09-20T22:07:55;1.53;;;1.00;;
15218;SDS011;15623;53.986;11.676;2022-09-20T22:10:24;1.90;;;1.10;;
15218;SDS011;15623;53.986;11.676;2022-09-20T22:12:53;1.00;;;1.00;;
15218;SDS011;15623;53.986;11.676;2022-09-20T22:15:21;2.40;;;1.20;;
15218;SDS011;15623;53.986;11.676;2022-09-20T22:17:48;1.33;;;1.23;;
15218;SDS011;15623;53.986;11.676;2022-09-20T22:20:17;1.37;;;1.37;;
15218;SDS011;15623;53.986;11.676;2022-09-20T22:22:45;1.77;;;1.67;;
15218;SDS011;15623;53.986;11.676;2022-09-20T22:25:14;2.87;;;1.50;;
15218;SDS011;15623;53.986;11.676;2022-09-20T22:27:42;1.40;;;1.30;;
15218;SDS011;15623;53.986;11.676;2022-09-20T22:30:10;1.83;;;1.43;;
15218;SDS011;15623;53.986;11.676;2022-09-20T22:32:38;1.30;;;1.30;;
15218;SDS011;15623;53.986;11.676;2022-09-20T22:35:06;1.57;;;1.50;;
15218;SDS011;15623;53.986;11.676;2022-09-20T22:37:34;1.60;;;1.50;;
15218;SDS011;15623;53.986;11.676;2022-09-20T22:40:03;1.50;;;1.40;;
15218;SDS011;15623;53.986;11.676;2022-09-20T22:42:36;1.47;;;1.40;;
15218;SDS011;15623;53.986;11.676;2022-09-20T22:45:06;1.70;;;1.60;;
15218;SDS011;15623;53.986;11.676;2022-09-20T22:47:34;2.70;;;1.63;;
15218;SDS011;15623;53.986;11.676;2022-09-20T22:50:18;1.60;;;1.50;;
15218;SDS011;15623;53.986;11.676;2022-09-20T22:52:52;1.60;;;1.60;;
15218;SDS011;15623;53.986;11.676;2022-09-20T22:55:20;2.40;;;1.80;;
15218;SDS011;15623;53.986;11.676;2022-09-20T22:57:51;1.63;;;1.53;;
15218;SDS011;15623;53.986;11.676;2022-09-20T23:00:19;1.70;;;1.60;;
15218;SDS011;15623;53.986;11.676;2022-09-20T23:02:53;1.80;;;1.70;;
15218;SDS011;15623;53.986;11.676;2022-09-20T23:05:24;1.30;;;1.30;;
15218;SDS011;15623;53.986;11.676;2022-09-20T23:08:02;1.60;;;1.50;;
15218;SDS011;15623;53.986;11.676;2022-09-20T23:10:31;1.30;;;1.10;;
15218;SDS011;15623;53.986;11.676;2022-09-20T23:13:24;2.70;;;1.80;;
15218;SDS011;15623;53.986;11.676;2022-09-20T23:16:14;1.67;;;1.57;;
15218;SDS011;15623;53.986;11.676;2022-09-20T23:19:00;2.93;;;1.70;;
15218;SDS011;15623;53.986;11.676;2022-09-20T23:21:51;1.90;;;1.80;;
15218;SDS011;15623;53.986;11.676;2022-09-20T23:24:47;3.30;;;1.80;;
15218;SDS011;15623;53.986;11.676;2022-09-20T23:27:20;1.90;;;1.80;;
15218;SDS011;15623;53.986;11.676;2022-09-20T23:29:55;1.60;;;1.50;;
15218;SDS011;15623;53.986;11.676;2022-09-20T23:32:32;2.10;;;1.90;;
15218;SDS011;15623;53.986;11.676;2022-09-20T23:35:04;4.50;;;1.87;;
15218;SDS011;15623;53.986;11.676;2022-09-20T23:37:36;2.50;;;2.10;;
15218;SDS011;15623;53.986;11.676;2022-09-20T23:40:22;2.17;;;2.03;;
